createdAt,value
2022-09-01T00:00:40.029Z,8.3
2022-09-01T00:01:40.799Z,8.0
2022-09-01T00:02:40.053Z,8.0
2022-09-01T00:03:38.964Z,8.4
2022-09-01T00:04:39.265Z,9.7
2022-09-01T00:05:39.050Z,8.3
2022-09-01T00:06:38.952Z,7.3
2022-09-01T00:07:39.107Z,9.0
2022-09-01T00:08:38.864Z,9.7
2022-09-01T00:09:40.205Z,8.0
2022-09-01T00:10:39.437Z,9.6
2022-09-01T00:11:39.830Z,8.1
2022-09-01T00:12:39.053Z,8.3
2022-09-01T00:13:39.853Z,7.1
2022-09-01T00:14:41.611Z,7.6
2022-09-01T00:15:39.632Z,7.6
2022-09-01T00:16:39.591Z,8.1
2022-09-01T00:17:39.454Z,8.7
2022-09-01T00:18:39.680Z,8.6
2022-09-01T00:19:39.042Z,9.0
2022-09-01T00:20:38.867Z,7.9
2022-09-01T00:21:41.818Z,7.9
2022-09-01T00:22:38.915Z,7.6
2022-09-01T00:23:39.503Z,8.5
2022-09-01T00:24:39.512Z,7.5
2022-09-01T00:25:39.236Z,7.0
2022-09-01T00:26:39.207Z,7.6
2022-09-01T00:27:39.739Z,7.7
2022-09-01T00:28:39.860Z,8.1
2022-09-01T00:29:39.452Z,8.0
2022-09-01T00:30:39.658Z,7.9
2022-09-01T00:31:39.988Z,8.4
2022-09-01T00:32:39.291Z,7.8
2022-09-01T00:33:39.106Z,8.5
2022-09-01T00:34:39.404Z,8.3
2022-09-01T00:35:39.054Z,7.6
2022-09-01T00:36:39.792Z,7.4
2022-09-01T00:37:39.548Z,8.3
2022-09-01T00:38:39.422Z,7.0
2022-09-01T00:39:39.393Z,8.8
2022-09-01T00:40:39.488Z,8.1
2022-09-01T00:41:39.762Z,7.1
2022-09-01T00:42:39.751Z,7.8
2022-09-01T00:43:41.645Z,6.5
2022-09-01T00:44:39.559Z,7.0
2022-09-01T00:45:39.774Z,7.9
2022-09-01T00:46:47.744Z,7.9
2022-09-01T00:47:39.406Z,7.7
2022-09-01T00:50:40.981Z,8.2
2022-09-01T00:51:41.677Z,7.3
2022-09-01T00:52:44.783Z,6.9
2022-09-01T00:53:40.652Z,7.3
2022-09-01T00:54:40.160Z,7.6
2022-09-01T00:55:40.762Z,7.1
2022-09-01T00:56:39.719Z,6.7
2022-09-01T00:57:39.836Z,8.3
2022-09-01T00:58:39.247Z,7.8
2022-09-01T00:59:44.620Z,7.1
2022-09-01T01:00:39.906Z,8.0
2022-09-01T01:01:39.459Z,7.4
2022-09-01T01:02:40.287Z,7.7
2022-09-01T01:03:39.192Z,7.2
2022-09-01T01:04:39.762Z,7.5
2022-09-01T01:05:41.642Z,7.1
2022-09-01T01:06:44.280Z,7.0
2022-09-01T01:07:39.196Z,7.4
2022-09-01T01:08:40.578Z,6.5
2022-09-01T01:09:41.089Z,7.3
2022-09-01T01:10:41.073Z,6.5
2022-09-01T01:11:39.657Z,7.8
2022-09-01T01:12:39.614Z,7.9
2022-09-01T01:13:49.718Z,8.4
2022-09-01T01:14:39.210Z,8.4
2022-09-01T01:15:40.468Z,7.7
2022-09-01T01:16:40.108Z,7.0
2022-09-01T01:17:39.489Z,7.8
2022-09-01T01:18:39.294Z,6.5
2022-09-01T01:19:45.993Z,7.4
2022-09-01T01:20:40.052Z,7.0
2022-09-01T01:21:41.300Z,7.6
2022-09-01T01:22:55.988Z,6.8
2022-09-01T01:23:48.915Z,6.9
2022-09-01T01:24:38.955Z,8.2
2022-09-01T01:25:53.272Z,7.8
2022-09-01T01:26:39.500Z,7.5
2022-09-01T01:27:42.796Z,7.4
2022-09-01T01:28:40.276Z,6.6
2022-09-01T01:29:38.911Z,6.7
2022-09-01T01:30:41.489Z,8.1
2022-09-01T01:31:39.418Z,7.4
2022-09-01T01:32:39.476Z,7.7
2022-09-01T01:33:43.955Z,6.8
2022-09-01T01:34:39.996Z,8.1
2022-09-01T01:35:39.141Z,6.9
2022-09-01T01:36:38.867Z,6.6
2022-09-01T01:37:43.827Z,7.2
2022-09-01T01:38:40.197Z,6.2
2022-09-01T01:39:39.954Z,7.8
2022-09-01T01:40:39.631Z,6.8
2022-09-01T01:41:40.745Z,7.3
2022-09-01T01:42:39.102Z,6.4
2022-09-01T01:43:39.832Z,8.5
2022-09-01T01:44:39.179Z,6.7
2022-09-01T01:45:39.057Z,7.4
2022-09-01T01:46:40.893Z,7.8
2022-09-01T01:47:39.016Z,7.3
2022-09-01T01:48:40.901Z,7.0
2022-09-01T01:49:39.649Z,6.7
2022-09-01T01:50:39.282Z,8.3
2022-09-01T01:51:39.234Z,7.4
2022-09-01T01:52:38.930Z,7.1
2022-09-01T01:53:39.969Z,7.0
2022-09-01T01:54:39.515Z,6.6
2022-09-01T01:55:39.943Z,6.5
2022-09-01T01:56:39.181Z,6.5
2022-09-01T01:57:39.528Z,6.2
2022-09-01T01:58:39.201Z,7.5
2022-09-01T01:59:38.975Z,7.4
2022-09-01T02:00:39.979Z,6.9
2022-09-01T02:01:39.635Z,6.2
2022-09-01T02:02:39.235Z,6.0
2022-09-01T02:03:39.105Z,7.3
2022-09-01T02:04:39.819Z,5.7
2022-09-01T02:05:39.563Z,6.4
2022-09-01T02:06:39.382Z,6.8
2022-09-01T02:07:39.594Z,7.2
2022-09-01T02:08:39.773Z,6.3
2022-09-01T02:09:41.294Z,6.7
2022-09-01T02:10:39.974Z,6.3
2022-09-01T02:11:38.880Z,7.9
2022-09-01T02:12:38.872Z,7.2
2022-09-01T02:13:38.935Z,6.5
2022-09-01T02:14:39.585Z,6.9
2022-09-01T02:15:40.725Z,6.5
2022-09-01T02:16:39.704Z,6.3
2022-09-01T02:17:39.003Z,7.1
2022-09-01T02:18:41.480Z,6.6
2022-09-01T02:19:39.560Z,6.5
2022-09-01T02:20:39.808Z,6.4
2022-09-01T02:21:39.193Z,6.1
2022-09-01T02:22:38.980Z,6.0
2022-09-01T02:23:39.859Z,6.0
2022-09-01T02:24:39.536Z,6.1
2022-09-01T02:25:59.050Z,6.4
2022-09-01T02:26:40.608Z,6.8
2022-09-01T02:27:38.864Z,6.6
2022-09-01T02:28:39.697Z,6.5
2022-09-01T02:29:43.301Z,7.3
2022-09-01T02:30:39.278Z,6.9
2022-09-01T02:31:39.058Z,6.4
2022-09-01T02:32:39.677Z,6.7
2022-09-01T02:33:40.609Z,6.4
2022-09-01T02:34:39.284Z,6.5
2022-09-01T02:35:39.097Z,6.3
2022-09-01T02:36:40.214Z,6.2
2022-09-01T02:37:39.649Z,6.1
2022-09-01T02:38:39.816Z,6.1
2022-09-01T02:39:39.335Z,6.5
2022-09-01T02:40:42.408Z,5.7
2022-09-01T02:41:38.946Z,6.2
2022-09-01T02:42:39.570Z,5.7
2022-09-01T02:43:39.943Z,6.2
2022-09-01T02:44:41.467Z,5.9
2022-09-01T02:45:39.722Z,6.2
2022-09-01T02:46:40.930Z,5.8
2022-09-01T02:47:39.537Z,6.5
2022-09-01T02:48:40.246Z,5.6
2022-09-01T02:49:39.158Z,5.9
2022-09-01T02:50:40.296Z,6.2
2022-09-01T02:51:43.405Z,5.9
2022-09-01T02:52:39.426Z,5.8
2022-09-01T02:53:39.753Z,6.9
2022-09-01T02:54:39.089Z,6.6
2022-09-01T02:55:38.948Z,6.7
2022-09-01T02:56:39.766Z,5.7
2022-09-01T02:57:39.505Z,6.5
2022-09-01T02:58:41.183Z,6.2
2022-09-01T02:59:43.138Z,6.1
2022-09-01T03:00:38.919Z,6.6
2022-09-01T03:01:39.641Z,5.5
2022-09-01T03:02:39.014Z,6.7
2022-09-01T03:03:39.632Z,5.7
2022-09-01T03:04:39.590Z,5.3
2022-09-01T03:05:39.260Z,5.5
2022-09-01T03:06:39.477Z,5.0
2022-09-01T03:07:38.927Z,5.2
2022-09-01T03:08:39.712Z,5.0
2022-09-01T03:09:39.415Z,6.2
2022-09-01T03:10:40.027Z,5.6
2022-09-01T03:11:41.360Z,6.2
2022-09-01T03:12:38.959Z,5.4
2022-09-01T03:13:40.153Z,5.6
2022-09-01T03:14:39.390Z,5.6
2022-09-01T03:15:39.640Z,4.9
2022-09-01T03:16:39.073Z,7.0
2022-09-01T03:17:40.706Z,6.3
2022-09-01T03:18:40.012Z,5.3
2022-09-01T03:19:38.828Z,6.3
2022-09-01T03:20:40.887Z,5.9
2022-09-01T03:21:40.300Z,5.9
2022-09-01T03:22:39.203Z,6.0
2022-09-01T03:23:39.088Z,6.7
2022-09-01T03:24:38.849Z,6.7
2022-09-01T03:25:42.661Z,5.5
2022-09-01T03:26:39.748Z,6.1
2022-09-01T03:27:39.199Z,7.2
2022-09-01T03:28:39.149Z,5.8
2022-09-01T03:29:39.740Z,6.4
2022-09-01T03:30:44.028Z,5.8
2022-09-01T03:31:39.367Z,5.6
2022-09-01T03:32:39.175Z,5.4
2022-09-01T03:33:38.948Z,6.1
2022-09-01T03:34:39.596Z,5.4
2022-09-01T03:35:39.420Z,6.1
2022-09-01T03:36:39.402Z,5.7
2022-09-01T03:37:39.063Z,6.1
2022-09-01T03:38:39.777Z,5.8
2022-09-01T03:39:39.602Z,6.4
2022-09-01T03:40:39.549Z,5.8
2022-09-01T03:41:39.206Z,5.1
2022-09-01T03:42:39.255Z,5.8
2022-09-01T03:43:45.831Z,5.5
2022-09-01T03:44:39.059Z,5.9
2022-09-01T03:45:39.296Z,6.5
2022-09-01T03:46:39.790Z,6.3
2022-09-01T03:47:39.415Z,5.9
2022-09-01T03:48:39.134Z,5.4
2022-09-01T03:49:38.977Z,6.3
2022-09-01T03:50:41.008Z,6.2
2022-09-01T03:51:40.088Z,5.4
2022-09-01T03:52:39.365Z,6.6
2022-09-01T03:53:39.560Z,5.8
2022-09-01T03:54:38.958Z,5.7
2022-09-01T03:55:39.688Z,5.5
2022-09-01T03:56:39.683Z,5.6
2022-09-01T03:57:39.244Z,5.9
2022-09-01T03:58:39.134Z,5.4
2022-09-01T03:59:38.880Z,5.6
2022-09-01T04:00:48.933Z,4.6
2022-09-01T04:01:39.457Z,4.9
2022-09-01T04:02:39.500Z,4.6
2022-09-01T04:03:39.461Z,5.6
2022-09-01T04:04:38.879Z,5.9
2022-09-01T04:05:43.201Z,5.5
2022-09-01T04:06:40.295Z,5.7
2022-09-01T04:07:39.228Z,4.9
2022-09-01T04:08:39.085Z,5.2
2022-09-01T04:09:39.695Z,5.9
2022-09-01T04:10:46.942Z,6.1
2022-09-01T04:11:42.519Z,5.0
2022-09-01T04:12:39.183Z,5.6
2022-09-01T04:13:40.486Z,5.9
2022-09-01T04:14:39.640Z,5.3
2022-09-01T04:15:39.472Z,4.9
2022-09-01T04:16:39.462Z,6.4
2022-09-01T04:17:39.311Z,5.7
2022-09-01T04:18:38.884Z,5.3
2022-09-01T04:19:39.820Z,5.5
2022-09-01T04:20:40.129Z,4.7
2022-09-01T04:21:39.216Z,5.9
2022-09-01T04:22:39.153Z,5.0
2022-09-01T04:23:38.946Z,6.0
2022-09-01T04:24:44.467Z,5.8
2022-09-01T04:25:39.322Z,5.5
2022-09-01T04:26:39.472Z,5.1
2022-09-01T04:27:38.984Z,4.7
2022-09-01T04:28:40.843Z,5.1
2022-09-01T04:29:39.497Z,4.0
2022-09-01T04:30:39.370Z,5.1
2022-09-01T04:31:39.484Z,4.4
2022-09-01T04:32:39.065Z,5.5
2022-09-01T04:33:39.594Z,5.8
2022-09-01T04:34:39.570Z,4.8
2022-09-01T04:35:39.260Z,5.4
2022-09-01T04:36:40.137Z,4.9
2022-09-01T04:37:39.877Z,4.1
2022-09-01T04:38:39.608Z,5.2
2022-09-01T04:39:40.498Z,5.4
2022-09-01T04:40:39.534Z,5.5
2022-09-01T04:41:40.658Z,5.8
2022-09-01T04:42:39.661Z,5.3
2022-09-01T04:43:39.090Z,5.0
2022-09-01T04:44:38.889Z,6.2
2022-09-01T04:45:39.571Z,4.7
2022-09-01T04:46:40.811Z,4.5
2022-09-01T04:47:39.259Z,4.7
2022-09-01T04:48:39.335Z,5.0
2022-09-01T04:49:39.714Z,5.4
2022-09-01T04:50:39.678Z,4.9
2022-09-01T04:51:40.547Z,5.4
2022-09-01T04:52:42.954Z,4.9
2022-09-01T04:53:38.974Z,5.0
2022-09-01T04:54:39.717Z,5.2
2022-09-01T04:55:40.231Z,5.5
2022-09-01T04:56:43.233Z,4.9
2022-09-01T04:57:39.028Z,5.1
2022-09-01T04:58:39.791Z,5.9
2022-09-01T04:59:39.573Z,5.0
2022-09-01T05:00:39.666Z,5.1
2022-09-01T05:01:39.784Z,4.8
2022-09-01T05:02:39.041Z,5.4
2022-09-01T05:03:39.687Z,5.1
2022-09-01T05:04:39.087Z,5.4
2022-09-01T05:05:43.294Z,4.8
2022-09-01T05:06:42.976Z,4.6
2022-09-01T05:07:39.331Z,5.5
2022-09-01T05:08:39.188Z,4.6
2022-09-01T05:09:39.242Z,5.8
2022-09-01T05:10:40.965Z,4.7
2022-09-01T05:11:39.790Z,5.6
2022-09-01T05:12:39.760Z,5.1
2022-09-01T05:13:39.641Z,5.2
2022-09-01T05:14:40.379Z,5.9
2022-09-01T05:15:39.845Z,4.4
2022-09-01T05:16:39.128Z,4.7
2022-09-01T05:17:39.934Z,4.8
2022-09-01T05:18:40.369Z,5.5
2022-09-01T05:19:40.525Z,5.5
2022-09-01T05:20:39.406Z,5.7
2022-09-01T05:21:39.282Z,5.1
2022-09-01T05:22:39.674Z,5.1
2022-09-01T05:23:39.691Z,4.8
2022-09-01T05:24:42.075Z,5.2
2022-09-01T05:25:40.365Z,5.5
2022-09-01T05:26:38.864Z,6.0
2022-09-01T05:27:40.838Z,5.3
2022-09-01T05:28:39.842Z,4.8
2022-09-01T05:29:39.111Z,5.3
2022-09-01T05:30:39.712Z,4.6
2022-09-01T05:31:40.943Z,4.6
2022-09-01T05:32:39.464Z,4.5
2022-09-01T05:33:39.800Z,4.6
2022-09-01T05:34:39.616Z,4.5
2022-09-01T05:35:38.930Z,5.3
2022-09-01T05:36:42.962Z,4.4
2022-09-01T05:37:39.403Z,4.4
2022-09-01T05:38:39.155Z,5.6
2022-09-01T05:39:39.051Z,5.2
2022-09-01T05:40:40.203Z,4.7
2022-09-01T05:41:39.726Z,4.8
2022-09-01T05:42:39.347Z,4.5
2022-09-01T05:43:39.139Z,3.7
2022-09-01T05:44:39.056Z,4.3
2022-09-01T05:45:56.517Z,4.4
2022-09-01T05:46:39.672Z,4.1
2022-09-01T05:47:39.521Z,4.7
2022-09-01T05:48:39.034Z,4.9
2022-09-01T05:49:38.941Z,4.4
2022-09-01T05:50:40.058Z,5.5
2022-09-01T05:51:45.762Z,4.4
2022-09-01T05:52:39.184Z,4.5
2022-09-01T05:53:39.048Z,3.8
2022-09-01T05:54:39.715Z,4.4
2022-09-01T05:55:39.454Z,5.5
2022-09-01T05:56:43.283Z,4.0
2022-09-01T05:57:39.089Z,4.8
2022-09-01T05:59:39.646Z,4.0
2022-09-01T06:00:40.416Z,5.0
2022-09-01T06:01:39.419Z,3.9
2022-09-01T06:02:39.860Z,4.5
2022-09-01T06:03:38.850Z,5.2
2022-09-01T06:04:39.557Z,4.5
2022-09-01T06:05:39.745Z,5.2
2022-09-01T06:07:01.722Z,6.4
2022-09-01T06:07:39.755Z,5.8
2022-09-01T06:08:39.529Z,4.7
2022-09-01T06:09:39.988Z,4.8
2022-09-01T06:10:40.433Z,4.5
2022-09-01T06:11:39.536Z,4.6
2022-09-01T06:12:39.331Z,4.0
2022-09-01T06:13:39.133Z,4.4
2022-09-01T06:14:39.006Z,4.9
2022-09-01T06:15:44.863Z,4.7
2022-09-01T06:16:39.524Z,4.7
2022-09-01T06:17:39.648Z,5.2
2022-09-01T06:18:39.449Z,4.6
2022-09-01T06:19:39.243Z,5.0
2022-09-01T06:20:39.635Z,4.0
2022-09-01T06:21:39.122Z,4.5
2022-09-01T06:22:39.613Z,4.4
2022-09-01T06:23:42.976Z,4.6
2022-09-01T06:24:39.213Z,4.4
2022-09-01T06:25:39.226Z,4.8
2022-09-01T06:26:39.741Z,5.2
2022-09-01T06:27:39.486Z,4.9
2022-09-01T06:28:39.276Z,4.6
2022-09-01T06:29:39.618Z,4.5
2022-09-01T06:30:39.019Z,4.9
2022-09-01T06:31:40.180Z,4.1
2022-09-01T06:32:40.468Z,4.4
2022-09-01T06:33:39.328Z,4.2
2022-09-01T06:34:40.023Z,4.6
2022-09-01T06:35:39.748Z,4.3
2022-09-01T06:36:39.535Z,4.1
2022-09-01T06:37:39.608Z,4.0
2022-09-01T06:38:39.136Z,4.5
2022-09-01T06:39:39.007Z,4.0
2022-09-01T06:40:39.889Z,4.4
2022-09-01T06:41:39.467Z,4.5
2022-09-01T06:42:39.285Z,4.9
2022-09-01T06:43:39.491Z,3.8
2022-09-01T06:44:41.051Z,4.2
2022-09-01T06:45:43.869Z,4.6
2022-09-01T06:46:39.543Z,3.8
2022-09-01T06:47:39.146Z,3.7
2022-09-01T06:48:39.047Z,3.8
2022-09-01T06:49:39.756Z,5.0
2022-09-01T06:51:39.342Z,5.2
2022-09-01T06:53:39.784Z,5.0
2022-09-01T06:54:39.771Z,5.3
2022-09-01T06:55:39.751Z,4.1
2022-09-01T06:56:44.692Z,4.4
2022-09-01T06:58:15.130Z,4.9
2022-09-01T06:58:42.484Z,4.3
2022-09-01T06:59:39.108Z,4.6
2022-09-01T07:00:39.033Z,3.8
2022-09-01T07:01:39.874Z,3.8
2022-09-01T07:02:39.571Z,4.4
2022-09-01T07:03:39.306Z,4.1
2022-09-01T07:04:39.127Z,3.0
2022-09-01T07:07:53.533Z,4.4
2022-09-01T07:08:05.381Z,3.3
2022-09-01T07:09:19.977Z,4.2
2022-09-01T07:12:08.303Z,3.1
2022-09-01T07:12:39.348Z,3.8
2022-09-01T07:14:14.520Z,3.8
2022-09-01T07:16:30.255Z,3.9
2022-09-01T07:16:41.853Z,3.6
2022-09-01T07:17:39.255Z,3.8
2022-09-01T07:18:39.031Z,3.5
2022-09-01T07:19:49.178Z,4.3
2022-09-01T07:21:02.679Z,3.3
2022-09-01T07:21:42.015Z,4.2
2022-09-01T07:23:03.480Z,3.4
2022-09-01T07:24:39.292Z,3.8
2022-09-01T07:25:49.568Z,3.0
2022-09-01T07:26:47.427Z,3.1
2022-09-01T07:27:41.428Z,4.4
2022-09-01T07:28:38.956Z,2.9
2022-09-01T07:29:39.606Z,2.9
2022-09-01T07:30:41.188Z,2.9
2022-09-01T07:31:51.291Z,2.7
2022-09-01T07:32:43.761Z,2.2
2022-09-01T07:33:44.215Z,3.0
2022-09-01T07:34:40.005Z,3.5
2022-09-01T07:36:24.939Z,3.2
2022-09-01T07:37:16.137Z,3.8
2022-09-01T07:42:30.103Z,3.9
2022-09-01T07:42:31.770Z,2.7
2022-09-01T07:42:55.723Z,2.7
2022-09-01T07:42:58.862Z,2.6
2022-09-01T07:43:39.912Z,2.9
2022-09-01T07:44:39.330Z,3.2
2022-09-01T07:45:48.000Z,3.2
2022-09-01T07:46:39.230Z,2.5
2022-09-01T07:47:53.710Z,2.6
2022-09-01T07:49:01.814Z,2.6
2022-09-01T07:50:12.005Z,3.0
2022-09-01T07:51:34.577Z,2.4
2022-09-01T07:51:39.862Z,2.5
2022-09-01T07:52:39.591Z,2.1
2022-09-01T07:53:39.284Z,3.0
2022-09-01T07:54:39.091Z,1.8
2022-09-01T07:55:39.457Z,2.5
2022-09-01T07:56:40.396Z,2.2
2022-09-01T07:57:40.517Z,2.8
2022-09-01T07:58:39.156Z,3.3
2022-09-01T07:59:38.946Z,3.3
2022-09-01T08:00:40.420Z,3.4
2022-09-01T08:01:39.574Z,3.6
2022-09-01T08:02:39.902Z,2.6
2022-09-01T08:03:39.681Z,3.6
2022-09-01T08:04:38.964Z,1.9
2022-09-01T08:05:39.715Z,2.3
2022-09-01T08:06:39.441Z,2.6
2022-09-01T08:07:51.644Z,2.8
2022-09-01T08:08:39.188Z,2.5
2022-09-01T08:09:44.255Z,2.4
2022-09-01T08:10:40.701Z,2.9
2022-09-01T08:12:01.147Z,2.4
2022-09-01T08:12:39.197Z,2.9
2022-09-01T08:13:41.486Z,2.1
2022-09-01T08:14:39.570Z,2.6
2022-09-01T08:15:41.386Z,2.2
2022-09-01T08:16:40.093Z,2.0
2022-09-01T08:17:51.258Z,2.0
2022-09-01T08:18:49.678Z,2.5
2022-09-01T08:19:39.467Z,2.1
2022-09-01T08:20:39.346Z,2.3
2022-09-01T08:21:39.088Z,2.5
2022-09-01T08:22:39.263Z,2.1
2022-09-01T08:23:39.595Z,2.2
2022-09-01T08:24:39.321Z,2.4
2022-09-01T08:25:39.319Z,1.6
2022-09-01T08:26:39.079Z,2.6
2022-09-01T08:27:39.701Z,2.3
2022-09-01T08:28:39.643Z,2.7
2022-09-01T08:29:39.274Z,1.8
2022-09-01T08:30:39.890Z,2.0
2022-09-01T08:31:38.932Z,2.4
2022-09-01T08:32:39.873Z,2.3
2022-09-01T08:33:39.902Z,2.9
2022-09-01T08:34:39.142Z,2.0
2022-09-01T08:35:39.832Z,2.8
2022-09-01T08:36:39.631Z,2.3
2022-09-01T08:37:39.494Z,2.7
2022-09-01T08:38:39.393Z,1.8
2022-09-01T08:39:39.101Z,1.8
2022-09-01T08:40:40.315Z,1.5
2022-09-01T08:41:43.935Z,1.6
2022-09-01T08:42:52.515Z,2.2
2022-09-01T08:43:44.447Z,1.6
2022-09-01T08:44:49.965Z,2.1
2022-09-01T08:45:47.000Z,1.8
2022-09-01T08:46:40.245Z,3.2
2022-09-01T08:47:50.690Z,2.7
2022-09-01T08:49:24.290Z,2.9
2022-09-01T08:49:43.582Z,3.6
2022-09-01T08:50:40.845Z,3.8
2022-09-01T08:51:42.478Z,2.7
2022-09-01T08:52:42.711Z,2.7
2022-09-01T08:53:46.995Z,4.1
2022-09-01T08:54:44.431Z,5.0
2022-09-01T08:55:42.181Z,4.9
2022-09-01T08:56:39.959Z,4.9
2022-09-01T08:57:43.328Z,3.6
2022-09-01T08:58:40.294Z,3.0
2022-09-01T08:59:39.257Z,2.6
2022-09-01T09:00:41.277Z,3.0
2022-09-01T09:01:57.972Z,3.2
2022-09-01T09:02:53.004Z,3.6
2022-09-01T09:03:44.171Z,4.1
2022-09-01T09:04:43.922Z,4.6
2022-09-01T09:05:55.461Z,5.3
2022-09-01T09:06:44.469Z,6.0
2022-09-01T09:07:53.267Z,3.7
2022-09-01T09:08:44.112Z,3.7
2022-09-01T09:09:55.262Z,4.2
2022-09-01T09:10:49.485Z,3.2
2022-09-01T09:11:46.983Z,4.2
2022-09-01T09:12:49.551Z,3.0
2022-09-01T09:13:57.477Z,3.8
2022-09-01T09:14:43.807Z,3.5
2022-09-01T09:15:43.200Z,3.3
2022-09-01T09:16:41.091Z,4.9
2022-09-01T09:17:43.663Z,4.7
2022-09-01T09:18:54.776Z,4.2
2022-09-01T09:19:42.393Z,4.9
2022-09-01T09:20:41.235Z,5.4
2022-09-01T09:21:43.912Z,4.8
2022-09-01T09:22:39.974Z,3.7
2022-09-01T09:23:42.342Z,4.5
2022-09-01T09:24:47.609Z,3.3
2022-09-01T09:25:39.540Z,3.7
2022-09-01T09:26:42.755Z,3.8
2022-09-01T09:27:40.432Z,3.1
2022-09-01T09:28:38.937Z,3.5
2022-09-01T09:29:39.606Z,4.3
2022-09-01T09:30:39.518Z,3.4
2022-09-01T09:31:40.175Z,4.0
2022-09-01T09:33:24.855Z,3.6
2022-09-01T09:33:50.100Z,4.1
2022-09-01T09:34:40.888Z,3.8
2022-09-01T09:35:41.043Z,3.5
2022-09-01T09:36:39.191Z,4.6
2022-09-01T09:37:38.998Z,3.8
2022-09-01T09:38:39.665Z,4.0
2022-09-01T09:39:39.459Z,4.4
2022-09-01T09:41:10.570Z,4.3
2022-09-01T09:41:40.092Z,3.8
2022-09-01T09:42:40.132Z,2.9
2022-09-01T09:43:45.191Z,3.7
2022-09-01T09:44:44.230Z,3.3
2022-09-01T09:45:42.222Z,4.6
2022-09-01T09:46:43.730Z,4.3
2022-09-01T09:47:44.865Z,4.0
2022-09-01T09:48:39.496Z,3.9
2022-09-01T09:49:43.246Z,3.2
2022-09-01T09:50:40.120Z,3.7
2022-09-01T09:51:40.319Z,3.5
2022-09-01T09:52:39.634Z,3.4
2022-09-01T09:53:39.425Z,4.5
2022-09-01T09:54:40.491Z,4.2
2022-09-01T09:55:43.892Z,2.8
2022-09-01T09:56:40.294Z,2.9
2022-09-01T09:57:39.654Z,3.1
2022-09-01T09:58:40.558Z,4.0
2022-09-01T09:59:57.624Z,2.9
2022-09-01T10:00:38.909Z,2.7
2022-09-01T10:01:39.642Z,3.2
2022-09-01T10:02:41.440Z,2.4
2022-09-01T10:03:40.907Z,3.7
2022-09-01T10:04:39.473Z,3.9
2022-09-01T10:05:43.469Z,2.9
2022-09-01T10:06:42.797Z,4.1
2022-09-01T10:07:38.851Z,3.4
2022-09-01T10:08:43.460Z,3.4
2022-09-01T10:09:39.304Z,2.7
2022-09-01T10:10:43.908Z,3.2
2022-09-01T10:11:42.701Z,2.9
2022-09-01T10:12:39.716Z,3.0
2022-09-01T10:13:39.473Z,3.6
2022-09-01T10:14:52.021Z,4.6
2022-09-01T10:15:40.295Z,6.6
2022-09-01T10:16:39.383Z,5.6
2022-09-01T10:17:43.308Z,5.7
2022-09-01T10:18:40.262Z,4.8
2022-09-01T10:19:41.890Z,4.4
2022-09-01T10:20:43.852Z,5.3
2022-09-01T10:21:41.147Z,5.5
2022-09-01T10:22:39.644Z,4.5
2022-09-01T10:23:41.477Z,4.8
2022-09-01T10:24:44.583Z,5.3
2022-09-01T10:25:39.513Z,4.4
2022-09-01T10:26:40.137Z,4.3
2022-09-01T10:27:40.707Z,3.4
2022-09-01T10:28:49.555Z,4.3
2022-09-01T10:29:47.678Z,4.8
2022-09-01T10:30:41.924Z,4.2
2022-09-01T10:31:40.300Z,3.8
2022-09-01T10:32:50.758Z,4.2
2022-09-01T10:33:39.305Z,3.9
2022-09-01T10:34:42.113Z,3.2
2022-09-01T10:35:41.556Z,2.9
2022-09-01T10:36:40.943Z,3.6
2022-09-01T10:37:41.460Z,4.1
2022-09-01T10:38:41.151Z,3.8
2022-09-01T10:39:51.542Z,4.0
2022-09-01T10:40:43.401Z,3.3
2022-09-01T10:41:46.985Z,4.0
2022-09-01T10:42:40.570Z,3.3
2022-09-01T10:43:43.229Z,3.1
2022-09-01T10:44:58.470Z,2.5
2022-09-01T10:45:39.489Z,3.0
2022-09-01T10:46:49.073Z,2.4
2022-09-01T10:47:39.101Z,1.9
2022-09-01T10:48:48.691Z,2.8
2022-09-01T10:49:50.006Z,2.4
2022-09-01T10:50:39.381Z,3.5
2022-09-01T10:51:50.504Z,3.0
2022-09-01T10:52:51.225Z,2.4
2022-09-01T10:53:44.661Z,2.2
2022-09-01T10:54:51.734Z,2.8
2022-09-01T10:55:59.020Z,2.5
2022-09-01T10:56:51.757Z,2.7
2022-09-01T10:57:52.500Z,2.5
2022-09-01T10:59:44.300Z,1.8
2022-09-01T11:01:10.569Z,1.8
2022-09-01T11:01:48.832Z,2.3
2022-09-01T11:02:46.581Z,2.7
2022-09-01T11:03:51.753Z,1.8
2022-09-01T11:04:44.342Z,2.4
2022-09-01T11:06:11.333Z,2.3
2022-09-01T11:07:11.486Z,2.8
2022-09-01T11:07:59.897Z,3.4
2022-09-01T11:08:42.051Z,2.7
2022-09-01T11:09:46.160Z,2.0
2022-09-01T11:10:44.350Z,2.9
2022-09-01T11:11:46.088Z,3.3
2022-09-01T11:12:56.930Z,1.3
2022-09-01T11:13:49.030Z,1.5
2022-09-01T11:14:49.875Z,3.0
2022-09-01T11:15:42.902Z,1.7
2022-09-01T11:16:47.981Z,2.2
2022-09-01T11:17:43.811Z,2.2
2022-09-01T11:18:39.876Z,2.9
2022-09-01T11:19:55.864Z,1.5
2022-09-01T11:20:40.619Z,1.8
2022-09-01T11:21:39.083Z,2.3
2022-09-01T11:23:01.709Z,1.9
2022-09-01T11:23:41.278Z,2.0
2022-09-01T11:24:44.226Z,1.7
2022-09-01T11:25:42.557Z,1.4
2022-09-01T11:26:47.042Z,2.3
2022-09-01T11:27:53.498Z,3.0
2022-09-01T11:28:40.402Z,2.4
2022-09-01T11:29:57.466Z,2.3
2022-09-01T11:30:40.971Z,3.0
2022-09-01T11:31:41.371Z,2.1
2022-09-01T11:32:43.752Z,2.5
2022-09-01T11:34:02.002Z,1.7
2022-09-01T11:34:43.451Z,1.8
2022-09-01T11:35:39.003Z,1.1
2022-09-01T11:36:48.244Z,1.8
2022-09-01T11:37:39.940Z,2.5
2022-09-01T11:38:47.729Z,1.9
2022-09-01T11:39:40.717Z,2.1
2022-09-01T11:40:39.789Z,2.1
2022-09-01T11:41:44.360Z,2.1
2022-09-01T11:42:41.013Z,2.1
2022-09-01T11:43:40.620Z,2.2
2022-09-01T11:44:55.502Z,2.5
2022-09-01T11:45:43.993Z,2.3
2022-09-01T11:46:39.688Z,2.4
2022-09-01T11:47:46.832Z,1.9
2022-09-01T11:48:43.930Z,1.4
2022-09-01T11:49:43.729Z,2.4
2022-09-01T11:50:42.248Z,2.6
2022-09-01T11:51:43.350Z,2.1
2022-09-01T11:52:39.148Z,2.4
2022-09-01T11:53:38.940Z,1.7
2022-09-01T11:54:40.717Z,2.3
2022-09-01T11:55:41.411Z,2.0
2022-09-01T11:56:39.657Z,1.8
2022-09-01T11:57:39.857Z,0.9
2022-09-01T11:58:39.586Z,2.0
2022-09-01T11:59:39.121Z,1.0
2022-09-01T12:00:39.948Z,2.1
2022-09-01T12:01:39.670Z,2.2
2022-09-01T12:02:44.403Z,1.0
2022-09-01T12:03:39.475Z,1.7
2022-09-01T12:04:39.054Z,1.7
2022-09-01T12:05:39.784Z,2.1
2022-09-01T12:06:39.567Z,1.9
2022-09-01T12:07:46.075Z,2.1
2022-09-01T12:08:40.192Z,2.0
2022-09-01T12:09:43.927Z,2.2
2022-09-01T12:10:40.859Z,1.9
2022-09-01T12:11:40.363Z,1.4
2022-09-01T12:12:39.309Z,1.8
2022-09-01T12:13:40.056Z,1.2
2022-09-01T12:15:02.180Z,1.8
2022-09-01T12:15:54.969Z,1.6
2022-09-01T12:16:39.926Z,1.8
2022-09-01T12:17:39.236Z,1.3
2022-09-01T12:18:46.434Z,1.3
2022-09-01T12:19:39.669Z,1.6
2022-09-01T12:20:39.634Z,2.1
2022-09-01T12:21:40.607Z,2.3
2022-09-01T12:22:41.711Z,3.3
2022-09-01T12:23:41.630Z,1.9
2022-09-01T12:24:43.302Z,2.0
2022-09-01T12:25:39.654Z,1.9
2022-09-01T12:26:39.604Z,1.6
2022-09-01T12:27:39.090Z,2.2
2022-09-01T12:28:40.192Z,1.0
2022-09-01T12:29:40.000Z,1.0
2022-09-01T12:30:39.848Z,1.6
2022-09-01T12:31:40.161Z,1.8
2022-09-01T12:32:38.999Z,1.0
2022-09-01T12:33:41.580Z,1.8
2022-09-01T12:34:40.907Z,1.6
2022-09-01T12:35:39.332Z,1.8
2022-09-01T12:36:39.137Z,1.2
2022-09-01T12:37:39.006Z,1.2
2022-09-01T12:38:39.530Z,1.6
2022-09-01T12:39:44.716Z,1.9
2022-09-01T12:40:39.219Z,1.3
2022-09-01T12:41:39.357Z,2.9
2022-09-01T12:42:44.587Z,1.9
2022-09-01T12:43:39.544Z,1.5
2022-09-01T12:44:44.103Z,1.4
2022-09-01T12:45:43.481Z,1.6
2022-09-01T12:46:40.268Z,1.5
2022-09-01T12:47:43.893Z,0.9
2022-09-01T12:48:40.151Z,1.5
2022-09-01T12:49:50.171Z,1.8
2022-09-01T12:50:43.646Z,1.2
2022-09-01T12:51:39.829Z,1.2
2022-09-01T12:52:47.050Z,1.0
2022-09-01T12:53:39.805Z,3.1
2022-09-01T12:54:39.270Z,1.9
2022-09-01T12:55:48.530Z,1.1
2022-09-01T12:56:39.744Z,0.9
2022-09-01T12:57:41.296Z,1.8
2022-09-01T12:58:39.335Z,2.2
2022-09-01T12:59:39.070Z,1.5
2022-09-01T13:00:57.106Z,1.5
2022-09-01T13:01:40.912Z,1.1
2022-09-01T13:02:44.384Z,1.7
2022-09-01T13:03:39.256Z,0.5
2022-09-01T13:04:39.057Z,1.5
2022-09-01T13:05:42.489Z,0.9
2022-09-01T13:06:39.539Z,0.7
2022-09-01T13:07:39.933Z,0.7
2022-09-01T13:08:39.144Z,1.4
2022-09-01T13:09:39.062Z,0.7
2022-09-01T13:10:43.108Z,0.7
2022-09-01T13:12:07.138Z,1.0
2022-09-01T13:12:43.141Z,0.9
2022-09-01T13:13:39.107Z,1.1
2022-09-01T13:14:38.976Z,0.9
2022-09-01T13:15:41.377Z,1.1
2022-09-01T13:16:39.784Z,0.9
2022-09-01T13:17:39.180Z,1.1
2022-09-01T13:19:39.756Z,1.0
2022-09-01T13:20:39.618Z,0.9
2022-09-01T13:22:39.333Z,1.3
2022-09-01T13:23:38.934Z,0.7
2022-09-01T13:24:39.743Z,1.2
2022-09-01T13:25:39.516Z,0.4
2022-09-01T13:26:39.208Z,1.4
2022-09-01T13:27:39.378Z,0.9
2022-09-01T13:28:40.925Z,1.0
2022-09-01T13:29:39.720Z,0.5
2022-09-01T13:30:39.543Z,1.2
2022-09-01T13:32:16.384Z,1.4
2022-09-01T13:33:18.841Z,1.3
2022-09-01T13:34:10.802Z,1.1
2022-09-01T13:34:39.526Z,1.2
2022-09-01T13:35:39.342Z,1.1
2022-09-01T13:36:45.390Z,0.5
2022-09-01T13:37:38.947Z,0.9
2022-09-01T13:38:39.734Z,1.2
2022-09-01T13:39:40.399Z,1.0
2022-09-01T13:40:39.284Z,1.1
2022-09-01T13:41:39.039Z,1.4
2022-09-01T13:42:40.187Z,0.6
2022-09-01T13:43:39.543Z,1.0
2022-09-01T13:44:39.365Z,0.9
2022-09-01T13:45:39.196Z,0.9
2022-09-01T13:46:59.606Z,1.3
2022-09-01T13:48:15.098Z,1.2
2022-09-01T13:49:03.350Z,1.5
2022-09-01T13:49:44.382Z,1.6
2022-09-01T13:51:38.939Z,1.4
2022-09-01T13:52:41.005Z,1.8
2022-09-01T13:53:39.396Z,1.1
2022-09-01T13:54:39.305Z,0.9
2022-09-01T13:55:39.545Z,1.3
2022-09-01T13:56:39.206Z,1.6
2022-09-01T13:57:39.087Z,1.2
2022-09-01T13:58:39.724Z,1.0
2022-09-01T13:59:39.572Z,1.5
2022-09-01T14:00:42.250Z,0.8
2022-09-01T14:01:39.627Z,1.4
2022-09-01T14:02:40.393Z,0.7